Time;durP1;ratioP1;P1;durP2;ratioP2;P2;SDS_P1;SDS_P2;PMS_P1;PMS_P2;Temp;Humidity;BMP_temperature;BMP_pressure;BME280_temperature;BME280_humidity;BME280_pressure;Samples;Min_cycle;Max_cycle;Signal;HPM_P1;HPM_P2
2021/07/10 00:01:06;;;;;;;11.13;5.47;;;20.20;84.90;;;;;;5118973;27;20035;-67
2021/07/10 00:03:31;;;;;;;10.15;5.65;;;20.30;81.90;;;;;;5111955;27;20511;-66
2021/07/10 00:05:57;;;;;;;9.35;4.95;;;20.30;82.60;;;;;;5114691;27;20148;-67
2021/07/10 00:08:22;;;;;;;13.00;5.22;;;20.40;83.50;;;;;;5124353;27;20027;-67
2021/07/10 00:10:48;;;;;;;12.35;6.82;;;20.40;82.60;;;;;;5130115;27;20027;-67
2021/07/10 00:13:14;;;;;;;10.48;6.97;;;20.10;79.50;;;;;;5120227;27;20492;-66
2021/07/10 00:15:39;;;;;;;11.65;6.15;;;19.80;80.60;;;;;;5112878;27;20031;-66
2021/07/10 00:18:05;;;;;;;8.95;4.85;;;19.60;81.50;;;;;;5112059;28;20034;-66
2021/07/10 00:20:31;;;;;;;8.93;5.82;;;19.80;84.40;;;;;;5121819;27;20150;-67
2021/07/10 00:22:56;;;;;;;9.88;5.47;;;20.10;82.80;;;;;;5127614;27;20015;-66
2021/07/10 00:25:22;;;;;;;10.77;6.00;;;20.20;83.40;;;;;;5131851;27;20559;-66
2021/07/10 00:27:49;;;;;;;9.50;5.10;;;20.20;81.10;;;;;;5127958;27;20038;-66
2021/07/10 00:30:17;;;;;;;10.20;7.07;;;20.20;83.00;;;;;;5122129;27;20410;-66
2021/07/10 00:32:43;;;;;;;9.82;5.65;;;19.90;80.40;;;;;;5132017;27;20019;-66
2021/07/10 00:35:09;;;;;;;10.85;6.10;;;19.70;83.20;;;;;;5130081;27;20379;-66
2021/07/10 00:37:35;;;;;;;7.70;4.75;;;19.60;83.00;;;;;;5132483;27;20025;-66
2021/07/10 00:40:02;;;;;;;11.35;5.78;;;19.80;85.50;;;;;;5129876;27;20023;-66
2021/07/10 00:42:27;;;;;;;9.70;5.97;;;19.70;80.90;;;;;;5125224;27;20534;-66
2021/07/10 00:44:53;;;;;;;10.85;6.35;;;19.40;81.20;;;;;;5112297;28;20036;-66
2021/07/10 00:47:18;;;;;;;11.05;6.72;;;19.20;81.90;;;;;;5110869;28;20373;-67
2021/07/10 00:49:44;;;;;;;11.63;7.00;;;18.90;82.90;;;;;;5120429;27;20488;-66
2021/07/10 00:52:09;;;;;;;11.55;7.35;;;18.80;84.00;;;;;;5131289;27;20023;-68
2021/07/10 00:54:36;;;;;;;11.57;6.95;;;18.70;84.30;;;;;;5121067;27;20503;-66
2021/07/10 00:57:04;;;;;;;9.65;5.10;;;18.60;85.10;;;;;;5132214;27;20023;-67
2021/07/10 00:59:32;;;;;;;10.57;7.28;;;18.60;87.00;;;;;;5126579;27;20024;-67
2021/07/10 01:01:58;;;;;;;10.75;7.10;;;18.60;85.80;;;;;;5111723;28;20051;-66
2021/07/10 01:04:23;;;;;;;11.00;5.35;;;18.60;87.10;;;;;;5111888;28;20589;-66
2021/07/10 01:06:49;;;;;;;9.00;5.18;;;18.80;89.50;;;;;;5112185;28;20047;-66
2021/07/10 01:09:16;;;;;;;9.27;5.30;;;19.10;87.60;;;;;;5113045;28;20035;-66
2021/07/10 01:11:43;;;;;;;10.63;5.63;;;19.40;87.90;;;;;;5112176;28;20043;-67
2021/07/10 01:14:10;;;;;;;8.45;4.60;;;19.70;85.90;;;;;;5113589;28;20024;-67
2021/07/10 01:16:36;;;;;;;10.70;6.43;;;19.90;85.10;;;;;;5131208;28;20031;-66
2021/07/10 01:19:02;;;;;;;9.95;5.70;;;19.90;81.80;;;;;;5114646;28;20365;-66
2021/07/10 01:21:27;;;;;;;8.40;4.75;;;19.90;84.20;;;;;;5113029;28;20038;-67
2021/07/10 01:23:53;;;;;;;10.07;5.20;;;20.10;84.30;;;;;;5110730;28;20433;-67
2021/07/10 01:26:19;;;;;;;8.77;4.97;;;20.20;83.70;;;;;;5124029;28;20035;-67
2021/07/10 01:28:45;;;;;;;11.82;5.15;;;20.10;83.00;;;;;;5130436;27;20523;-67
2021/07/10 01:31:11;;;;;;;10.57;7.43;;;20.00;83.50;;;;;;5135736;27;20046;-67
2021/07/10 01:33:37;;;;;;;10.80;7.70;;;19.80;80.10;;;;;;5134654;27;20103;-66
2021/07/10 01:36:04;;;;;;;11.35;5.72;;;19.50;81.40;;;;;;5136275;27;20502;-67
2021/07/10 01:38:30;;;;;;;11.63;6.20;;;19.30;86.10;;;;;;5134982;27;20031;-67
2021/07/10 01:40:56;;;;;;;10.30;7.00;;;19.10;84.80;;;;;;5134955;27;20027;-67
2021/07/10 01:43:22;;;;;;;11.05;7.95;;;19.10;81.10;;;;;;5129208;27;20019;-66
2021/07/10 01:45:47;;;;;;;9.60;6.05;;;18.80;82.80;;;;;;5114577;28;20030;-67
2021/07/10 01:48:13;;;;;;;11.85;7.78;;;18.80;84.30;;;;;;5118836;27;20019;-67
2021/07/10 01:50:40;;;;;;;13.10;7.57;;;18.60;83.20;;;;;;5134066;27;20019;-67
2021/07/10 01:53:06;;;;;;;11.98;7.82;;;18.50;85.20;;;;;;5150693;27;20536;-66
2021/07/10 01:55:32;;;;;;;12.88;8.68;;;18.40;85.90;;;;;;5126969;27;20045;-67
2021/07/10 01:57:58;;;;;;;11.48;7.93;;;18.40;86.80;;;;;;5134132;27;20464;-67
2021/07/10 02:00:26;;;;;;;13.60;8.23;;;18.20;86.90;;;;;;5124877;27;20050;-66
2021/07/10 02:02:53;;;;;;;13.52;8.73;;;18.20;88.10;;;;;;5117025;27;20019;-67
2021/07/10 02:05:22;;;;;;;13.18;8.43;;;18.10;88.80;;;;;;5133618;27;20499;-66
2021/07/10 02:07:49;;;;;;;9.10;6.18;;;18.30;88.40;;;;;;5135018;27;20027;-66
2021/07/10 02:10:16;;;;;;;8.95;5.50;;;18.60;88.80;;;;;;5119136;27;20027;-67
2021/07/10 02:12:53;;;;;;;7.45;5.03;;;18.80;90.00;;;;;;5115164;28;20609;-66
2021/07/10 02:15:19;;;;;;;8.18;5.10;;;19.10;88.90;;;;;;5115293;28;20461;-66
2021/07/10 02:17:44;;;;;;;9.65;5.55;;;19.40;87.80;;;;;;5116265;27;20028;-67
2021/07/10 02:20:17;;;;;;;11.68;5.47;;;19.70;86.50;;;;;;5123440;27;20015;-66
2021/07/10 02:22:43;;;;;;;9.38;6.35;;;19.80;83.80;;;;;;5129303;27;20030;-67
2021/07/10 02:25:11;;;;;;;10.23;7.25;;;19.70;82.80;;;;;;5151876;27;20026;-67
2021/07/10 02:27:37;;;;;;;17.95;8.27;;;19.30;81.90;;;;;;5121230;27;20035;-67
2021/07/10 02:30:08;;;;;;;17.27;7.15;;;18.80;82.40;;;;;;5132890;27;20034;-67
2021/07/10 02:32:34;;;;;;;18.80;7.93;;;18.40;84.20;;;;;;5131617;27;20106;-67
2021/07/10 02:34:59;;;;;;;16.58;7.32;;;18.10;86.20;;;;;;5135473;27;20058;-67
2021/07/10 02:37:25;;;;;;;14.85;8.02;;;18.00;86.90;;;;;;5135136;27;20033;-67
2021/07/10 02:39:52;;;;;;;14.43;8.00;;;17.90;87.20;;;;;;5118306;27;20035;-67
2021/07/10 02:42:18;;;;;;;14.15;8.57;;;17.80;87.80;;;;;;5127914;27;20027;-67
2021/07/10 02:44:43;;;;;;;13.82;7.88;;;17.70;88.30;;;;;;5114671;28;20054;-66
2021/07/10 02:47:09;;;;;;;13.82;8.77;;;17.60;88.50;;;;;;5126452;27;20448;-69
2021/07/10 02:49:34;;;;;;;13.25;8.45;;;17.50;89.60;;;;;;5129183;27;20098;-66
2021/07/10 02:52:00;;;;;;;8.82;5.88;;;17.50;90.00;;;;;;5135202;27;20087;-67
2021/07/10 02:54:25;;;;;;;8.73;5.50;;;17.60;91.60;;;;;;5135090;27;20487;-67
2021/07/10 02:56:51;;;;;;;11.32;7.28;;;18.20;91.10;;;;;;5133506;27;20027;-67
2021/07/10 02:59:16;;;;;;;13.05;9.07;;;18.40;87.00;;;;;;5134769;27;20039;-67
2021/07/10 03:01:42;;;;;;;15.40;9.40;;;18.10;86.80;;;;;;5119429;27;20078;-67
2021/07/10 03:04:07;;;;;;;14.48;9.15;;;17.90;87.40;;;;;;5112868;28;20027;-69
2021/07/10 03:06:33;;;;;;;13.60;9.43;;;17.80;87.70;;;;;;5114273;28;20077;-67
2021/07/10 03:08:58;;;;;;;15.48;9.00;;;17.60;88.20;;;;;;5128573;27;20064;-67
2021/07/10 03:11:24;;;;;;;11.80;7.93;;;17.40;89.70;;;;;;5129284;27;20035;-68
2021/07/10 03:13:49;;;;;;;9.75;6.28;;;17.30;90.10;;;;;;5113111;27;20027;-66
2021/07/10 03:16:15;;;;;;;9.95;5.70;;;17.60;91.70;;;;;;5115253;27;20027;-67
2021/07/10 03:18:40;;;;;;;9.38;6.13;;;18.40;91.50;;;;;;5113474;27;20035;-67
2021/07/10 03:21:06;;;;;;;14.30;10.18;;;18.90;88.90;;;;;;5125291;27;20039;-69
2021/07/10 03:23:32;;;;;;;14.27;9.73;;;18.00;86.10;;;;;;5113890;28;20028;-66
2021/07/10 03:25:57;;;;;;;13.95;10.05;;;17.30;90.20;;;;;;5114004;28;20015;-67
2021/07/10 03:28:23;;;;;;;14.82;10.40;;;17.00;91.20;;;;;;5124554;27;20068;-67
2021/07/10 03:30:52;;;;;;;15.20;10.00;;;16.90;91.40;;;;;;5129779;27;20084;-67
2021/07/10 03:33:19;;;;;;;14.32;10.23;;;16.70;91.70;;;;;;5130089;27;20023;-66
2021/07/10 03:35:45;;;;;;;13.93;9.07;;;16.60;92.00;;;;;;5112447;28;20024;-66
2021/07/10 03:38:10;;;;;;;15.68;10.18;;;16.60;92.20;;;;;;5113803;27;20492;-67
2021/07/10 03:40:36;;;;;;;16.25;10.50;;;16.50;92.20;;;;;;5112279;28;20176;-66
2021/07/10 03:43:02;;;;;;;13.57;9.45;;;16.40;92.30;;;;;;5112913;27;20080;-66
2021/07/10 03:45:27;;;;;;;14.77;10.13;;;16.40;92.50;;;;;;5113500;27;20080;-66
2021/07/10 03:47:53;;;;;;;13.68;9.27;;;16.40;92.80;;;;;;5130252;27;20094;-67
2021/07/10 03:50:19;;;;;;;15.52;11.07;;;16.30;92.30;;;;;;5125994;27;20027;-69
2021/07/10 03:52:45;;;;;;;14.90;10.35;;;16.30;93.00;;;;;;5112536;28;20480;-67
2021/07/10 03:55:12;;;;;;;15.52;10.15;;;16.20;93.40;;;;;;5112032;28;20107;-67
2021/07/10 03:57:38;;;;;;;16.13;10.40;;;16.00;94.10;;;;;;5112905;28;20489;-67
2021/07/10 04:00:07;;;;;;;15.02;10.55;;;16.00;94.60;;;;;;5114662;27;20033;-66
2021/07/10 04:02:32;;;;;;;14.73;10.30;;;16.10;94.00;;;;;;5117926;27;20047;-66
2021/07/10 04:04:58;;;;;;;14.73;10.25;;;16.20;94.30;;;;;;5125555;27;20058;-66
2021/07/10 04:07:23;;;;;;;17.45;10.68;;;16.20;93.90;;;;;;5112883;27;20385;-67
2021/07/10 04:09:49;;;;;;;13.77;9.88;;;16.20;94.00;;;;;;5111691;28;20023;-66
2021/07/10 04:12:14;;;;;;;16.83;10.32;;;16.20;93.40;;;;;;5113081;28;20080;-67
2021/07/10 04:14:40;;;;;;;17.02;10.85;;;16.10;94.00;;;;;;5124769;27;20404;-67
2021/07/10 04:17:06;;;;;;;14.93;11.25;;;16.30;94.20;;;;;;5122487;27;20110;-67
2021/07/10 04:19:32;;;;;;;16.35;11.00;;;16.20;94.40;;;;;;5126969;27;20051;-67
2021/07/10 04:21:58;;;;;;;16.95;11.50;;;16.10;94.70;;;;;;5118888;27;20054;-68
2021/07/10 04:24:23;;;;;;;15.48;11.55;;;16.10;94.70;;;;;;5131548;27;20068;-66
2021/07/10 04:26:49;;;;;;;17.13;12.27;;;16.30;94.70;;;;;;5145090;27;20023;-66
2021/07/10 04:29:15;;;;;;;16.30;10.70;;;16.40;94.40;;;;;;5136763;27;20023;-66
2021/07/10 04:31:40;;;;;;;15.75;10.18;;;16.50;94.60;;;;;;5127624;27;20026;-67
2021/07/10 04:34:06;;;;;;;15.13;10.70;;;16.60;94.70;;;;;;5119764;27;20023;-67
2021/07/10 04:36:31;;;;;;;13.90;9.60;;;16.80;94.30;;;;;;5143576;27;20103;-67
2021/07/10 04:38:57;;;;;;;14.57;10.30;;;16.90;94.30;;;;;;5153595;27;20026;-66
2021/07/10 04:41:22;;;;;;;17.67;11.27;;;16.90;94.10;;;;;;5151791;27;20038;-67
2021/07/10 04:43:48;;;;;;;18.00;11.45;;;17.00;93.90;;;;;;5132726;27;20038;-67
2021/07/10 04:46:14;;;;;;;13.82;9.45;;;17.10;93.30;;;;;;5111558;28;20503;-66
2021/07/10 04:48:39;;;;;;;15.65;10.30;;;17.10;93.50;;;;;;5115808;27;20492;-66
2021/07/10 04:51:05;;;;;;;13.85;9.75;;;17.10;93.40;;;;;;5116386;27;20019;-67
2021/07/10 04:53:30;;;;;;;13.82;8.82;;;17.20;93.10;;;;;;5116517;27;20059;-69
2021/07/10 04:55:56;;;;;;;16.67;10.70;;;17.30;93.10;;;;;;5109218;27;20756;-67
2021/07/10 04:58:22;;;;;;;15.88;9.73;;;17.40;93.00;;;;;;5112294;27;20132;-67
2021/07/10 05:00:49;;;;;;;15.18;9.95;;;17.30;93.40;;;;;;5113434;27;20072;-66
2021/07/10 05:03:15;;;;;;;14.13;9.70;;;17.30;93.60;;;;;;5126247;27;20031;-67
2021/07/10 05:05:41;;;;;;;14.02;9.15;;;17.40;93.50;;;;;;5113250;27;20432;-68
2021/07/10 05:08:07;;;;;;;19.33;11.50;;;17.40;94.70;;;;;;5118952;27;20427;-68
2021/07/10 05:10:33;;;;;;;17.42;11.95;;;17.50;94.70;;;;;;5114933;27;20042;-68
2021/07/10 05:12:59;;;;;;;15.07;11.10;;;17.60;93.80;;;;;;5109918;28;20028;-67
2021/07/10 05:15:24;;;;;;;16.15;11.65;;;17.70;93.10;;;;;;5114139;28;20025;-66
2021/07/10 05:17:50;;;;;;;14.93;10.68;;;17.80;92.80;;;;;;5118201;28;20035;-67
2021/07/10 05:20:16;;;;;;;15.38;10.68;;;18.00;91.80;;;;;;5110458;27;20403;-68
2021/07/10 05:22:42;;;;;;;15.25;10.20;;;18.00;91.60;;;;;;5113327;28;20028;-70
2021/07/10 05:25:09;;;;;;;15.43;11.38;;;18.00;90.90;;;;;;5125705;27;20031;-69
2021/07/10 05:27:35;;;;;;;17.30;10.43;;;18.10;91.00;;;;;;5112087;28;20027;-68
2021/07/10 05:30:00;;;;;;;14.48;10.30;;;18.20;91.30;;;;;;5112712;28;20058;-66
2021/07/10 05:32:26;;;;;;;14.55;10.80;;;18.40;90.60;;;;;;5107564;28;20117;-66
2021/07/10 05:34:52;;;;;;;14.80;10.90;;;18.40;91.00;;;;;;5110555;28;20031;-67
2021/07/10 05:37:17;;;;;;;14.82;10.65;;;18.50;90.70;;;;;;5116170;28;20119;-65
2021/07/10 05:39:43;;;;;;;14.43;10.55;;;18.50;90.70;;;;;;5122161;27;20050;-67
2021/07/10 05:42:09;;;;;;;15.18;10.05;;;18.60;90.50;;;;;;5114002;28;20031;-67
2021/07/10 05:44:35;;;;;;;18.40;11.30;;;18.80;90.30;;;;;;5110310;27;20024;-69
2021/07/10 05:47:01;;;;;;;16.23;10.77;;;19.00;88.60;;;;;;5116635;27;20130;-68
2021/07/10 05:49:26;;;;;;;17.83;11.50;;;18.90;88.70;;;;;;5118171;28;20035;-68
2021/07/10 05:51:52;;;;;;;16.23;11.52;;;18.90;88.00;;;;;;5110206;28;20105;-68
2021/07/10 05:54:18;;;;;;;15.80;11.05;;;18.90;87.00;;;;;;5112313;28;20061;-66
2021/07/10 05:56:44;;;;;;;16.13;10.93;;;19.10;88.40;;;;;;5105169;28;20026;-69
2021/07/10 05:59:09;;;;;;;15.40;11.50;;;18.90;89.30;;;;;;5103825;28;20032;-66
2021/07/10 06:01:35;;;;;;;16.02;11.13;;;19.00;89.70;;;;;;5106752;27;20035;-67
2021/07/10 06:04:01;;;;;;;14.50;10.82;;;19.10;90.00;;;;;;5105169;28;20850;-66
2021/07/10 06:06:27;;;;;;;16.85;10.88;;;19.30;87.20;;;;;;5112602;27;20179;-67
2021/07/10 06:08:52;;;;;;;19.05;10.80;;;19.50;86.10;;;;;;5120234;27;20505;-67
2021/07/10 06:11:18;;;;;;;15.82;11.10;;;19.60;85.60;;;;;;5115379;27;20088;-67
2021/07/10 06:13:43;;;;;;;15.07;10.60;;;19.60;86.30;;;;;;5130499;27;20023;-69
2021/07/10 06:16:10;;;;;;;14.30;10.05;;;19.50;87.50;;;;;;5133702;27;20103;-67
2021/07/10 06:18:35;;;;;;;14.90;10.52;;;19.50;86.10;;;;;;5125440;27;20113;-68
2021/07/10 06:21:01;;;;;;;14.20;10.30;;;19.70;86.90;;;;;;5119764;27;20134;-62
2021/07/10 06:23:27;;;;;;;15.55;10.25;;;20.00;82.50;;;;;;5124463;27;20031;-65
2021/07/10 06:25:52;;;;;;;15.52;10.80;;;20.00;84.90;;;;;;5124782;27;20087;-64
2021/07/10 06:28:18;;;;;;;13.88;9.90;;;20.20;81.20;;;;;;5137228;27;20076;-66
2021/07/10 06:30:43;;;;;;;15.15;10.60;;;20.40;78.50;;;;;;5134480;27;20034;-72
2021/07/10 06:33:09;;;;;;;15.18;10.13;;;20.80;79.20;;;;;;5135301;27;20075;-68
2021/07/10 06:35:35;;;;;;;14.40;10.50;;;20.60;78.00;;;;;;5133147;27;20058;-65
2021/07/10 06:38:00;;;;;;;14.02;10.13;;;20.60;77.30;;;;;;5119607;27;20127;-64
2021/07/10 06:40:26;;;;;;;15.65;11.00;;;20.70;78.60;;;;;;5114648;27;20020;-71
2021/07/10 06:42:52;;;;;;;13.90;9.63;;;21.20;75.90;;;;;;5118025;27;20523;-69
2021/07/10 06:45:19;;;;;;;15.18;9.80;;;21.50;73.80;;;;;;5115968;27;20714;-62
2021/07/10 06:47:46;;;;;;;13.95;9.88;;;21.20;73.70;;;;;;5116001;27;20027;-67
2021/07/10 06:50:13;;;;;;;14.32;10.13;;;21.10;78.00;;;;;;5111508;27;20034;-66
2021/07/10 06:52:39;;;;;;;13.52;10.00;;;21.00;75.90;;;;;;5117638;27;20582;-62
2021/07/10 06:55:08;;;;;;;17.13;10.68;;;21.10;76.60;;;;;;5114287;27;20388;-65
2021/07/10 06:57:33;;;;;;;16.40;10.75;;;21.10;76.50;;;;;;5116806;27;20023;-65
2021/07/10 06:59:59;;;;;;;14.40;9.80;;;21.00;77.00;;;;;;5110489;27;20039;-66
2021/07/10 07:02:25;;;;;;;16.30;10.88;;;21.50;74.30;;;;;;5127987;27;20041;-64
2021/07/10 07:04:51;;;;;;;18.38;11.65;;;21.60;74.20;;;;;;5119974;27;20031;-65
2021/07/10 07:07:16;;;;;;;15.98;11.15;;;21.80;72.90;;;;;;5107457;28;20438;-64
2021/07/10 07:09:42;;;;;;;14.73;10.95;;;22.40;71.30;;;;;;5107645;28;20118;-63
2021/07/10 07:12:08;;;;;;;15.40;11.25;;;22.30;72.20;;;;;;5107776;28;20042;-63
2021/07/10 07:14:33;;;;;;;14.95;11.02;;;22.30;71.10;;;;;;5107580;28;20023;-63
2021/07/10 07:16:59;;;;;;;17.65;11.75;;;21.90;73.60;;;;;;5106525;28;20015;-65
2021/07/10 07:19:30;;;;;;;15.35;11.18;;;23.00;71.20;;;;;;5105630;28;20442;-65
2021/07/10 07:21:56;;;;;;;16.48;11.52;;;23.30;68.90;;;;;;5107631;28;20039;-60
2021/07/10 07:24:22;;;;;;;17.25;11.98;;;22.90;71.20;;;;;;5107806;28;20031;-65
2021/07/10 07:26:48;;;;;;;16.42;11.63;;;21.40;79.90;;;;;;5107199;28;20049;-65
2021/07/10 07:29:13;;;;;;;17.75;12.32;;;21.40;78.50;;;;;;5107468;28;20027;-64
2021/07/10 07:31:39;;;;;;;18.48;11.75;;;21.20;79.30;;;;;;5107105;28;20452;-63
2021/07/10 07:34:05;;;;;;;16.15;11.55;;;21.80;76.10;;;;;;5105987;28;20191;-64
2021/07/10 07:36:30;;;;;;;22.05;12.55;;;21.80;74.30;;;;;;5105745;28;20054;-62
2021/07/10 07:38:56;;;;;;;16.63;11.98;;;21.60;76.00;;;;;;5105681;28;20122;-64
2021/07/10 07:41:21;;;;;;;17.35;12.27;;;21.60;76.00;;;;;;5107312;28;20028;-65
2021/07/10 07:43:47;;;;;;;15.35;11.18;;;22.00;74.50;;;;;;5107200;28;20038;-64
2021/07/10 07:46:14;;;;;;;16.33;12.05;;;21.90;72.80;;;;;;5105706;28;20059;-63
2021/07/10 07:48:43;;;;;;;15.77;11.02;;;22.00;75.00;;;;;;5105500;28;20030;-64
2021/07/10 07:51:15;;;;;;;15.27;11.18;;;22.70;73.30;;;;;;5106975;28;20028;-64
2021/07/10 07:53:42;;;;;;;19.60;12.25;;;23.60;69.60;;;;;;5126632;27;20034;-63
2021/07/10 07:56:09;;;;;;;15.10;11.30;;;23.40;68.60;;;;;;5118701;27;20019;-68
2021/07/10 07:58:34;;;;;;;16.63;11.25;;;23.80;68.50;;;;;;5130863;27;20133;-64
2021/07/10 08:01:00;;;;;;;18.80;12.35;;;24.00;69.50;;;;;;5125097;27;20105;-61
2021/07/10 08:03:26;;;;;;;17.70;12.32;;;23.80;70.10;;;;;;5106894;28;20074;-64
2021/07/10 08:05:52;;;;;;;19.73;12.55;;;24.00;65.60;;;;;;5115509;27;20511;-62
2021/07/10 08:08:17;;;;;;;14.90;10.00;;;23.80;67.80;;;;;;5119274;27;20035;-63
2021/07/10 08:10:43;;;;;;;17.42;12.13;;;24.10;66.20;;;;;;5117870;27;20145;-61
2021/07/10 08:13:09;;;;;;;17.83;12.07;;;23.30;68.90;;;;;;5108321;27;20027;-63
2021/07/10 08:15:34;;;;;;;17.17;12.90;;;23.70;68.60;;;;;;5107993;27;20024;-64
2021/07/10 08:18:00;;;;;;;18.25;12.48;;;24.40;62.30;;;;;;5114073;27;20110;-64
2021/07/10 08:20:25;;;;;;;16.52;11.98;;;24.50;63.30;;;;;;5105500;28;20027;-64
2021/07/10 08:22:51;;;;;;;16.73;12.75;;;24.10;64.90;;;;;;5110180;27;20026;-61
2021/07/10 08:25:17;;;;;;;18.73;12.95;;;24.60;66.80;;;;;;5123070;27;20504;-63
2021/07/10 08:27:43;;;;;;;19.02;13.38;;;24.10;63.60;;;;;;5121779;27;20062;-68
2021/07/10 08:30:10;;;;;;;18.70;11.80;;;24.60;62.00;;;;;;5110250;27;20111;-66
2021/07/10 08:32:36;;;;;;;20.30;14.20;;;24.30;64.80;;;;;;5111927;27;20080;-69
2021/07/10 08:35:03;;;;;;;18.10;13.23;;;25.20;59.90;;;;;;5115341;27;20023;-69
2021/07/10 08:37:28;;;;;;;20.88;14.00;;;26.20;56.50;;;;;;5113716;27;20015;-69
2021/07/10 08:39:54;;;;;;;18.92;13.20;;;25.90;58.90;;;;;;5115959;27;20034;-73
2021/07/10 08:42:20;;;;;;;20.70;13.27;;;26.30;57.20;;;;;;5116680;27;20077;-71
2021/07/10 08:44:50;;;;;;;18.70;12.50;;;25.90;59.00;;;;;;5122540;27;20023;-73
2021/07/10 08:47:17;;;;;;;18.08;11.32;;;25.40;62.30;;;;;;5115690;27;20118;-72
2021/07/10 08:49:43;;;;;;;19.40;14.60;;;24.30;66.00;;;;;;5106870;27;20115;-69
2021/07/10 08:52:09;;;;;;;17.85;12.23;;;25.00;56.20;;;;;;5126253;27;20053;-72
2021/07/10 08:54:35;;;;;;;17.67;13.15;;;24.80;60.80;;;;;;5118150;27;20020;-71
2021/07/10 08:57:01;;;;;;;17.52;12.95;;;25.70;59.10;;;;;;5107312;27;20038;-71
2021/07/10 08:59:26;;;;;;;16.98;12.93;;;25.60;58.10;;;;;;5105511;27;20023;-75
2021/07/10 09:01:54;;;;;;;18.70;11.55;;;25.30;58.40;;;;;;5124184;27;20503;-68
2021/07/10 09:04:28;;;;;;;18.02;11.85;;;24.90;63.90;;;;;;5123880;27;20035;-68
2021/07/10 09:06:54;;;;;;;17.45;10.73;;;26.30;53.20;;;;;;5108855;28;20801;-74
2021/07/10 09:09:19;;;;;;;15.70;10.68;;;26.20;58.50;;;;;;5108241;27;20031;-71
2021/07/10 09:12:01;;;;;;;13.85;10.27;;;25.80;58.80;;;;;;5111376;27;20031;-67
2021/07/10 09:14:33;;;;;;;15.30;10.45;;;26.40;56.40;;;;;;5112493;28;20047;-73
2021/07/10 09:17:15;;;;;;;17.15;11.50;;;26.70;55.10;;;;;;5108569;28;20459;-69
2021/07/10 09:19:41;;;;;;;15.80;9.63;;;26.70;52.50;;;;;;5110537;27;20042;-72
2021/07/10 09:22:07;;;;;;;15.30;8.55;;;26.60;54.50;;;;;;5112493;27;20035;-72
2021/07/10 09:24:35;;;;;;;18.77;8.85;;;26.00;57.10;;;;;;5109135;28;20061;-61
2021/07/10 09:27:05;;;;;;;13.60;9.00;;;26.60;50.40;;;;;;5117040;28;20036;-67
2021/07/10 09:29:38;;;;;;;13.30;7.97;;;27.30;49.50;;;;;;5112839;28;20496;-63
2021/07/10 09:32:06;;;;;;;17.65;8.57;;;26.90;54.00;;;;;;5111345;28;20048;-63
2021/07/10 09:34:43;;;;;;;13.10;7.53;;;25.30;61.50;;;;;;5106439;28;20015;-63
2021/07/10 09:37:13;;;;;;;16.05;8.20;;;25.00;56.70;;;;;;5110114;28;20365;-63
2021/07/10 09:39:55;;;;;;;10.70;6.93;;;26.30;56.20;;;;;;5110574;28;20476;-67
2021/07/10 09:42:25;;;;;;;12.43;8.10;;;27.20;50.60;;;;;;5119351;27;20058;-62
2021/07/10 09:44:53;;;;;;;12.80;8.05;;;29.00;46.60;;;;;;5116176;28;20046;-59
2021/07/10 09:47:30;;;;;;;15.18;7.53;;;28.10;49.60;;;;;;5122530;27;20114;-64
2021/07/10 09:49:58;;;;;;;12.18;7.50;;;26.40;56.60;;;;;;5111356;28;20084;-62
2021/07/10 09:52:25;;;;;;;11.73;7.25;;;25.50;58.90;;;;;;5111512;27;20421;-59
2021/07/10 09:54:59;;;;;;;11.02;7.88;;;25.00;60.20;;;;;;5115390;27;20046;-60
2021/07/10 09:57:35;;;;;;;12.13;7.85;;;24.70;60.20;;;;;;5121454;27;20091;-61
2021/07/10 10:00:07;;;;;;;11.82;7.32;;;24.50;59.90;;;;;;5118199;27;20024;-62
2021/07/10 10:02:40;;;;;;;20.42;8.45;;;24.30;63.70;;;;;;5109730;27;20205;-61
2021/07/10 10:05:09;;;;;;;13.23;7.95;;;24.30;63.70;;;;;;5131274;27;20038;-61
2021/07/10 10:07:46;;;;;;;12.65;7.00;;;24.30;63.10;;;;;;5117923;27;20393;-63
2021/07/10 10:10:23;;;;;;;19.05;8.80;;;24.30;63.10;;;;;;5112988;27;20499;-63
2021/07/10 10:13:04;;;;;;;15.45;7.10;;;24.30;67.00;;;;;;5112873;27;20032;-63
2021/07/10 10:15:30;;;;;;;19.17;8.55;;;24.40;68.80;;;;;;5117988;27;20038;-62
2021/07/10 10:17:56;;;;;;;23.30;8.05;;;24.40;69.00;;;;;;5117710;27;20019;-63
2021/07/10 10:20:22;;;;;;;17.33;7.80;;;24.50;67.60;;;;;;5109645;27;20488;-63
2021/07/10 10:22:49;;;;;;;21.40;7.82;;;24.50;71.80;;;;;;5124927;27;20031;-63
2021/07/10 10:25:16;;;;;;;15.07;7.47;;;24.50;69.30;;;;;;5123952;27;20027;-63
2021/07/10 10:27:45;;;;;;;12.55;7.10;;;24.60;69.30;;;;;;5115789;27;20042;-62
2021/07/10 10:30:11;;;;;;;12.30;8.20;;;24.70;69.80;;;;;;5120207;27;20019;-68
2021/07/10 10:32:37;;;;;;;11.95;7.82;;;24.50;63.00;;;;;;5117686;27;20034;-66
2021/07/10 10:35:03;;;;;;;13.10;9.10;;;24.50;64.10;;;;;;5109860;27;20024;-67
2021/07/10 10:37:29;;;;;;;11.82;8.68;;;24.30;62.70;;;;;;5112368;27;20110;-62
2021/07/10 10:39:55;;;;;;;17.75;8.60;;;24.30;63.40;;;;;;5113508;27;20161;-63
2021/07/10 10:42:23;;;;;;;16.25;8.30;;;24.30;62.20;;;;;;5111074;27;20027;-65
2021/07/10 10:44:54;;;;;;;15.93;8.10;;;24.30;62.90;;;;;;5115729;27;20030;-62
2021/07/10 10:47:23;;;;;;;14.13;7.97;;;24.30;63.30;;;;;;5108986;27;20032;-64
2021/07/10 10:49:52;;;;;;;25.00;9.25;;;24.20;63.40;;;;;;5113106;27;20027;-68
2021/07/10 10:52:42;;;;;;;18.77;8.20;;;24.20;63.90;;;;;;5111365;27;20015;-65
2021/07/10 10:55:12;;;;;;;17.30;7.75;;;24.20;63.30;;;;;;5099525;27;20112;-62
2021/07/10 10:57:46;;;;;;;13.93;7.78;;;24.20;63.90;;;;;;5120502;27;20446;-62
2021/07/10 11:00:17;;;;;;;13.30;7.32;;;24.10;62.80;;;;;;5116228;27;20043;-61
2021/07/10 11:02:50;;;;;;;11.90;6.80;;;24.10;63.10;;;;;;5106228;28;20038;-62
2021/07/10 11:05:37;;;;;;;13.32;7.35;;;24.10;61.30;;;;;;5106356;28;20027;-61
2021/07/10 11:08:29;;;;;;;11.32;6.28;;;24.10;63.50;;;;;;5096414;28;20043;-62
2021/07/10 11:10:56;;;;;;;10.50;6.85;;;24.00;62.30;;;;;;5107676;28;20024;-63
2021/07/10 11:13:44;;;;;;;11.52;6.57;;;24.00;63.20;;;;;;5106348;28;20396;-62
2021/07/10 11:16:19;;;;;;;10.13;6.30;;;24.00;61.90;;;;;;5107779;28;20031;-63
2021/07/10 11:18:51;;;;;;;11.20;6.28;;;24.00;63.00;;;;;;5105789;28;20031;-64
2021/07/10 11:21:41;;;;;;;9.93;6.20;;;23.90;63.40;;;;;;5107485;28;20134;-61
2021/07/10 11:26:43;;;;;;;10.85;7.35;;;24.00;61.90;;;;;;5110135;27;20042;-62
2021/07/10 11:29:19;;;;;;;11.25;7.63;;;24.00;62.90;;;;;;5117978;27;20497;-62
2021/07/10 11:31:44;;;;;;;12.32;7.97;;;24.00;61.70;;;;;;5111532;27;20128;-60
2021/07/10 11:34:12;;;;;;;10.43;6.63;;;24.00;62.50;;;;;;5114818;27;20048;-62
2021/07/10 11:36:56;;;;;;;9.52;6.93;;;24.00;61.70;;;;;;5108543;27;20054;-62
2021/07/10 11:39:24;;;;;;;10.20;6.82;;;23.80;60.60;;;;;;5106423;27;20041;-61
2021/07/10 11:41:51;;;;;;;9.45;6.70;;;23.80;62.60;;;;;;5114487;27;20031;-61
2021/07/10 11:44:21;;;;;;;10.18;6.40;;;23.90;61.10;;;;;;5111266;27;20131;-61
2021/07/10 11:46:55;;;;;;;9.68;5.82;;;23.90;60.10;;;;;;5118341;27;20031;-64
2021/07/10 11:49:36;;;;;;;10.00;5.90;;;23.90;59.00;;;;;;5116699;27;20023;-63
2021/07/10 11:52:11;;;;;;;13.85;6.45;;;23.90;60.80;;;;;;5110140;27;20030;-63
2021/07/10 11:54:39;;;;;;;11.10;5.63;;;23.90;61.20;;;;;;5108236;27;20059;-61
2021/07/10 11:57:07;;;;;;;12.80;6.38;;;23.90;60.40;;;;;;5113086;27;20110;-61
2021/07/10 11:59:34;;;;;;;9.02;5.72;;;23.90;59.30;;;;;;5111095;27;20053;-62
2021/07/10 12:02:17;;;;;;;8.82;6.15;;;23.80;59.50;;;;;;5113598;27;20031;-61
2021/07/10 12:05:05;;;;;;;11.50;6.25;;;23.80;60.90;;;;;;5112056;27;20062;-60
2021/07/10 12:07:36;;;;;;;11.10;6.13;;;23.70;60.60;;;;;;5108883;27;20050;-62
2021/07/10 12:10:05;;;;;;;40.53;9.02;;;23.70;61.50;;;;;;5112529;27;22132;-66
2021/07/10 12:12:33;;;;;;;28.75;7.95;;;23.70;62.40;;;;;;5112252;27;20080;-61
2021/07/10 12:14:59;;;;;;;22.92;6.25;;;23.70;63.00;;;;;;5111768;27;20023;-62
2021/07/10 12:17:26;;;;;;;15.88;7.22;;;23.70;63.10;;;;;;5110616;27;20111;-65
2021/07/10 12:19:52;;;;;;;19.30;7.13;;;23.60;63.10;;;;;;5116337;27;20039;-65
2021/07/10 12:22:21;;;;;;;11.82;5.78;;;23.60;63.40;;;;;;5120332;27;20027;-62
2021/07/10 12:24:47;;;;;;;16.23;6.60;;;23.70;63.30;;;;;;5110636;27;20111;-63
2021/07/10 12:27:15;;;;;;;14.77;6.05;;;23.70;63.30;;;;;;5107113;27;20106;-64
2021/07/10 12:29:51;;;;;;;13.18;6.43;;;23.70;63.70;;;;;;5122482;27;20046;-63
2021/07/10 12:32:17;;;;;;;12.77;7.00;;;23.70;63.50;;;;;;5116591;27;20847;-64
2021/07/10 12:34:51;;;;;;;11.32;6.20;;;23.70;64.00;;;;;;5113527;27;20030;-62
2021/07/10 12:37:29;;;;;;;23.40;7.32;;;23.70;64.00;;;;;;5106286;27;20027;-67